sensor_id;sensor_type;location;lat;lon;timestamp;pressure;altitude;pressure_sealevel;temperature;humidity
2401;BME280;1211;43.200;27.914;2023-04-03T00:01:45;100485.03;;;13.16;nan
2401;BME280;1211;43.200;27.914;2023-04-03T00:04:11;100489.69;;;13.00;nan
2401;BME280;1211;43.200;27.914;2023-04-03T00:06:39;100481.47;;;13.15;nan
2401;BME280;1211;43.200;27.914;2023-04-03T00:09:06;100489.34;;;12.89;nan
2401;BME280;1211;43.200;27.914;2023-04-03T00:11:33;100486.28;;;12.66;nan
2401;BME280;1211;43.200;27.914;2023-04-03T00:13:59;100485.59;;;12.69;nan
2401;BME280;1211;43.200;27.914;2023-04-03T00:16:26;100487.09;;;12.67;nan
2401;BME280;1211;43.200;27.914;2023-04-03T00:18:53;100493.16;;;12.85;nan
2401;BME280;1211;43.200;27.914;2023-04-03T00:21:20;100491.91;;;12.70;nan
2401;BME280;1211;43.200;27.914;2023-04-03T00:23:48;100499.41;;;12.57;nan
2401;BME280;1211;43.200;27.914;2023-04-03T00:26:15;100489.31;;;12.49;nan
2401;BME280;1211;43.200;27.914;2023-04-03T00:28:42;100485.97;;;12.44;nan
2401;BME280;1211;43.200;27.914;2023-04-03T00:31:08;100481.56;;;12.67;nan
2401;BME280;1211;43.200;27.914;2023-04-03T00:33:35;100489.16;;;12.33;nan
2401;BME280;1211;43.200;27.914;2023-04-03T00:36:05;100487.13;;;12.55;nan
2401;BME280;1211;43.200;27.914;2023-04-03T00:38:32;100486.50;;;12.61;nan
2401;BME280;1211;43.200;27.914;2023-04-03T00:41:00;100485.72;;;12.49;nan
2401;BME280;1211;43.200;27.914;2023-04-03T00:43:26;100486.28;;;12.66;nan
2401;BME280;1211;43.200;27.914;2023-04-03T00:45:54;100484.09;;;12.72;nan
2401;BME280;1211;43.200;27.914;2023-04-03T00:48:22;100487.78;;;12.39;nan
2401;BME280;1211;43.200;27.914;2023-04-03T00:50:50;100479.50;;;12.39;nan
2401;BME280;1211;43.200;27.914;2023-04-03T00:53:19;100476.28;;;12.50;nan
2401;BME280;1211;43.200;27.914;2023-04-03T00:55:49;100474.09;;;12.55;nan
2401;BME280;1211;43.200;27.914;2023-04-03T00:58:18;100473.31;;;12.55;nan
2401;BME280;1211;43.200;27.914;2023-04-03T01:00:50;100470.13;;;12.80;nan
2401;BME280;1211;43.200;27.914;2023-04-03T01:03:22;100472.84;;;12.53;nan
2401;BME280;1211;43.200;27.914;2023-04-03T01:05:49;100474.69;;;12.24;nan
2401;BME280;1211;43.200;27.914;2023-04-03T01:08:15;100461.78;;;12.28;nan
2401;BME280;1211;43.200;27.914;2023-04-03T01:10:42;100462.38;;;12.22;nan
2401;BME280;1211;43.200;27.914;2023-04-03T01:13:22;100455.03;;;12.38;nan
2401;BME280;1211;43.200;27.914;2023-04-03T01:15:49;100457.06;;;12.41;nan
2401;BME280;1211;43.200;27.914;2023-04-03T01:18:16;100459.25;;;12.48;nan
2401;BME280;1211;43.200;27.914;2023-04-03T01:23:38;100455.13;;;12.42;nan
2401;BME280;1211;43.200;27.914;2023-04-03T01:26:06;100458.78;;;12.58;nan
2401;BME280;1211;43.200;27.914;2023-04-03T01:28:36;100464.44;;;12.25;nan
2401;BME280;1211;43.200;27.914;2023-04-03T01:31:06;100464.69;;;12.32;nan
2401;BME280;1211;43.200;27.914;2023-04-03T01:33:38;100457.66;;;11.86;nan
2401;BME280;1211;43.200;27.914;2023-04-03T01:36:05;100451.66;;;11.96;nan
2401;BME280;1211;43.200;27.914;2023-04-03T01:38:32;100460.41;;;11.86;nan
2401;BME280;1211;43.200;27.914;2023-04-03T01:40:59;100471.00;;;11.96;nan
2401;BME280;1211;43.200;27.914;2023-04-03T01:43:26;100468.00;;;12.13;nan
2401;BME280;1211;43.200;27.914;2023-04-03T01:45:52;100468.59;;;11.62;nan
2401;BME280;1211;43.200;27.914;2023-04-03T01:48:20;100473.50;;;11.89;nan
2401;BME280;1211;43.200;27.914;2023-04-03T01:50:48;100476.66;;;11.67;nan
2401;BME280;1211;43.200;27.914;2023-04-03T01:53:14;100479.81;;;11.77;nan
2401;BME280;1211;43.200;27.914;2023-04-03T01:55:43;100485.00;;;11.91;nan
2401;BME280;1211;43.200;27.914;2023-04-03T01:58:10;100487.97;;;11.74;nan
2401;BME280;1211;43.200;27.914;2023-04-03T02:00:37;100489.94;;;11.85;nan
2401;BME280;1211;43.200;27.914;2023-04-03T02:03:03;100494.53;;;11.81;nan
2401;BME280;1211;43.200;27.914;2023-04-03T02:05:30;100491.31;;;11.79;nan
2401;BME280;1211;43.200;27.914;2023-04-03T02:07:58;100497.91;;;12.11;nan
2401;BME280;1211;43.200;27.914;2023-04-03T02:10:25;100498.25;;;12.22;nan
2401;BME280;1211;43.200;27.914;2023-04-03T02:12:52;100501.25;;;12.53;nan
2401;BME280;1211;43.200;27.914;2023-04-03T02:15:19;100503.56;;;12.63;nan
2401;BME280;1211;43.200;27.914;2023-04-03T02:17:45;100496.97;;;12.56;nan
2401;BME280;1211;43.200;27.914;2023-04-03T02:20:12;100496.78;;;12.61;nan
2401;BME280;1211;43.200;27.914;2023-04-03T02:22:39;100497.91;;;12.72;nan
2401;BME280;1211;43.200;27.914;2023-04-03T02:25:07;100502.38;;;12.76;nan
2401;BME280;1211;43.200;27.914;2023-04-03T02:27:34;100496.63;;;12.82;nan
2401;BME280;1211;43.200;27.914;2023-04-03T02:30:01;100500.16;;;12.94;nan
2401;BME280;1211;43.200;27.914;2023-04-03T02:32:28;100497.63;;;13.01;nan
2401;BME280;1211;43.200;27.914;2023-04-03T02:34:55;100498.34;;;12.86;nan
2401;BME280;1211;43.200;27.914;2023-04-03T02:37:21;100502.81;;;12.91;nan
2401;BME280;1211;43.200;27.914;2023-04-03T02:39:48;100492.09;;;13.01;nan
2401;BME280;1211;43.200;27.914;2023-04-03T02:42:16;100500.84;;;12.91;nan
2401;BME280;1211;43.200;27.914;2023-04-03T02:44:43;100496.38;;;12.87;nan
2401;BME280;1211;43.200;27.914;2023-04-03T02:47:10;100501.34;;;12.69;nan
2401;BME280;1211;43.200;27.914;2023-04-03T02:49:36;100506.44;;;12.43;nan
2401;BME280;1211;43.200;27.914;2023-04-03T02:52:03;100511.47;;;12.16;nan
2401;BME280;1211;43.200;27.914;2023-04-03T02:54:30;100512.19;;;12.13;nan
2401;BME280;1211;43.200;27.914;2023-04-03T02:56:57;100518.47;;;11.89;nan
2401;BME280;1211;43.200;27.914;2023-04-03T02:59:25;100515.94;;;11.64;nan
2401;BME280;1211;43.200;27.914;2023-04-03T03:01:52;100511.44;;;11.80;nan
2401;BME280;1211;43.200;27.914;2023-04-03T03:04:19;100512.28;;;11.72;nan
2401;BME280;1211;43.200;27.914;2023-04-03T03:06:45;100519.44;;;11.73;nan
2401;BME280;1211;43.200;27.914;2023-04-03T03:09:12;100522.16;;;11.61;nan
2401;BME280;1211;43.200;27.914;2023-04-03T03:11:39;100526.84;;;11.60;nan
2401;BME280;1211;43.200;27.914;2023-04-03T03:14:06;100535.28;;;11.43;nan
2401;BME280;1211;43.200;27.914;2023-04-03T03:16:34;100544.00;;;11.66;nan
2401;BME280;1211;43.200;27.914;2023-04-03T03:19:01;100544.44;;;11.55;nan
2401;BME280;1211;43.200;27.914;2023-04-03T03:21:27;100538.22;;;11.79;nan
2401;BME280;1211;43.200;27.914;2023-04-03T03:23:54;100550.16;;;11.30;nan
2401;BME280;1211;43.200;27.914;2023-04-03T03:26:21;100542.75;;;11.63;nan
2401;BME280;1211;43.200;27.914;2023-04-03T03:28:47;100550.09;;;11.71;nan
2401;BME280;1211;43.200;27.914;2023-04-03T03:31:14;100551.19;;;11.46;nan
2401;BME280;1211;43.200;27.914;2023-04-03T03:33:42;100549.16;;;11.34;nan
2401;BME280;1211;43.200;27.914;2023-04-03T03:36:09;100561.25;;;11.63;nan
2401;BME280;1211;43.200;27.914;2023-04-03T03:38:36;100554.75;;;11.58;nan
2401;BME280;1211;43.200;27.914;2023-04-03T03:41:03;100558.47;;;11.42;nan
2401;BME280;1211;43.200;27.914;2023-04-03T03:43:30;100563.56;;;11.73;nan
2401;BME280;1211;43.200;27.914;2023-04-03T03:45:56;100567.91;;;11.62;nan
2401;BME280;1211;43.200;27.914;2023-04-03T03:48:23;100566.84;;;11.75;nan
2401;BME280;1211;43.200;27.914;2023-04-03T03:50:51;100581.59;;;11.70;nan
2401;BME280;1211;43.200;27.914;2023-04-03T03:53:18;100579.28;;;11.93;nan
2401;BME280;1211;43.200;27.914;2023-04-03T03:55:45;100578.09;;;11.82;nan
2401;BME280;1211;43.200;27.914;2023-04-03T03:58:12;100582.81;;;12.14;nan
2401;BME280;1211;43.200;27.914;2023-04-03T04:00:38;100573.28;;;12.24;nan
2401;BME280;1211;43.200;27.914;2023-04-03T04:03:05;100584.81;;;12.38;nan
2401;BME280;1211;43.200;27.914;2023-04-03T04:05:32;100580.31;;;12.33;nan
2401;BME280;1211;43.200;27.914;2023-04-03T04:08:00;100584.94;;;12.42;nan
2401;BME280;1211;43.200;27.914;2023-04-03T04:10:28;100579.88;;;12.56;nan
2401;BME280;1211;43.200;27.914;2023-04-03T04:12:55;100583.34;;;12.65;nan
2401;BME280;1211;43.200;27.914;2023-04-03T04:15:21;100584.81;;;12.62;nan
2401;BME280;1211;43.200;27.914;2023-04-03T04:17:49;100584.69;;;13.07;nan
2401;BME280;1211;43.200;27.914;2023-04-03T04:20:15;100590.88;;;13.41;nan
2401;BME280;1211;43.200;27.914;2023-04-03T04:22:42;100584.38;;;13.49;nan
2401;BME280;1211;43.200;27.914;2023-04-03T04:25:10;100589.13;;;13.48;nan
2401;BME280;1211;43.200;27.914;2023-04-03T04:27:37;100593.41;;;13.74;nan
2401;BME280;1211;43.200;27.914;2023-04-03T04:30:04;100604.63;;;13.65;nan
2401;BME280;1211;43.200;27.914;2023-04-03T04:32:32;100593.88;;;13.76;nan
2401;BME280;1211;43.200;27.914;2023-04-03T04:34:58;100590.19;;;13.72;nan
2401;BME280;1211;43.200;27.914;2023-04-03T04:37:25;100585.53;;;13.88;nan
2401;BME280;1211;43.200;27.914;2023-04-03T04:39:52;100592.06;;;14.11;nan
2401;BME280;1211;43.200;27.914;2023-04-03T04:42:20;100592.19;;;14.30;nan
2401;BME280;1211;43.200;27.914;2023-04-03T04:44:47;100592.75;;;14.36;nan
2401;BME280;1211;43.200;27.914;2023-04-03T04:47:14;100589.03;;;14.44;nan
2401;BME280;1211;43.200;27.914;2023-04-03T04:49:40;100603.84;;;13.92;nan
2401;BME280;1211;43.200;27.914;2023-04-03T04:52:07;100604.38;;;14.41;nan
2401;BME280;1211;43.200;27.914;2023-04-03T04:54:34;100594.38;;;14.37;nan
2401;BME280;1211;43.200;27.914;2023-04-03T04:57:00;100608.53;;;14.79;nan
2401;BME280;1211;43.200;27.914;2023-04-03T04:59:29;100592.50;;;14.72;nan
2401;BME280;1211;43.200;27.914;2023-04-03T05:01:55;100600.16;;;14.95;nan
2401;BME280;1211;43.200;27.914;2023-04-03T05:04:22;100594.75;;;14.51;nan
2401;BME280;1211;43.200;27.914;2023-04-03T05:06:49;100590.44;;;14.54;nan
2401;BME280;1211;43.200;27.914;2023-04-03T05:09:15;100590.94;;;13.84;nan
2401;BME280;1211;43.200;27.914;2023-04-03T05:11:42;100599.34;;;14.16;nan
2401;BME280;1211;43.200;27.914;2023-04-03T05:14:09;100598.34;;;14.24;nan
2401;BME280;1211;43.200;27.914;2023-04-03T05:16:37;100595.44;;;14.95;nan
2401;BME280;1211;43.200;27.914;2023-04-03T05:19:04;100597.69;;;14.90;nan
2401;BME280;1211;43.200;27.914;2023-04-03T05:21:31;100602.66;;;15.00;nan
2401;BME280;1211;43.200;27.914;2023-04-03T05:23:58;100606.09;;;15.28;nan
2401;BME280;1211;43.200;27.914;2023-04-03T05:26:27;100595.06;;;15.86;nan
2401;BME280;1211;43.200;27.914;2023-04-03T05:28:54;100603.16;;;16.36;nan
2401;BME280;1211;43.200;27.914;2023-04-03T05:31:21;100590.69;;;16.72;nan
2401;BME280;1211;43.200;27.914;2023-04-03T05:33:50;100592.88;;;16.60;nan
2401;BME280;1211;43.200;27.914;2023-04-03T05:36:16;100604.16;;;16.47;nan
2401;BME280;1211;43.200;27.914;2023-04-03T05:38:43;100600.84;;;16.61;nan
2401;BME280;1211;43.200;27.914;2023-04-03T05:41:10;100601.63;;;16.84;nan
2401;BME280;1211;43.200;27.914;2023-04-03T05:43:37;100614.41;;;16.89;nan
2401;BME280;1211;43.200;27.914;2023-04-03T05:46:06;100610.94;;;16.27;nan
2401;BME280;1211;43.200;27.914;2023-04-03T05:48:34;100622.44;;;17.47;nan
2401;BME280;1211;43.200;27.914;2023-04-03T05:51:03;100618.31;;;17.97;nan
2401;BME280;1211;43.200;27.914;2023-04-03T05:53:31;100622.16;;;18.56;nan
2401;BME280;1211;43.200;27.914;2023-04-03T05:55:59;100622.09;;;18.11;nan
2401;BME280;1211;43.200;27.914;2023-04-03T05:58:26;100630.47;;;18.11;nan
2401;BME280;1211;43.200;27.914;2023-04-03T06:00:52;100629.44;;;18.67;nan
2401;BME280;1211;43.200;27.914;2023-04-03T06:03:19;100629.44;;;18.64;nan
2401;BME280;1211;43.200;27.914;2023-04-03T06:05:46;100626.84;;;19.43;nan
2401;BME280;1211;43.200;27.914;2023-04-03T06:08:14;100627.81;;;19.75;nan
2401;BME280;1211;43.200;27.914;2023-04-03T06:10:41;100629.88;;;19.93;nan
2401;BME280;1211;43.200;27.914;2023-04-03T06:13:08;100635.97;;;20.12;nan
2401;BME280;1211;43.200;27.914;2023-04-03T06:15:34;100635.31;;;21.11;nan
2401;BME280;1211;43.200;27.914;2023-04-03T06:18:01;100637.69;;;21.41;nan
2401;BME280;1211;43.200;27.914;2023-04-03T06:20:28;100652.81;;;22.59;nan
2401;BME280;1211;43.200;27.914;2023-04-03T06:22:56;100663.22;;;23.21;nan
2401;BME280;1211;43.200;27.914;2023-04-03T06:25:24;100674.50;;;20.97;nan
2401;BME280;1211;43.200;27.914;2023-04-03T06:27:51;100681.28;;;19.63;nan
2401;BME280;1211;43.200;27.914;2023-04-03T06:30:20;100680.34;;;20.21;nan
2401;BME280;1211;43.200;27.914;2023-04-03T06:32:47;100686.22;;;19.95;nan
2401;BME280;1211;43.200;27.914;2023-04-03T06:35:15;100686.94;;;20.89;nan
2401;BME280;1211;43.200;27.914;2023-04-03T06:37:43;100699.69;;;19.71;nan
2401;BME280;1211;43.200;27.914;2023-04-03T06:40:12;100706.66;;;19.44;nan
2401;BME280;1211;43.200;27.914;2023-04-03T06:42:46;100713.53;;;22.39;nan
2401;BME280;1211;43.200;27.914;2023-04-03T06:45:12;100716.19;;;21.23;nan
2401;BME280;1211;43.200;27.914;2023-04-03T06:47:39;100724.94;;;21.75;nan
2401;BME280;1211;43.200;27.914;2023-04-03T06:50:06;100718.47;;;20.65;nan
2401;BME280;1211;43.200;27.914;2023-04-03T06:52:34;100733.97;;;23.60;nan
2401;BME280;1211;43.200;27.914;2023-04-03T06:55:00;100729.47;;;24.04;nan
2401;BME280;1211;43.200;27.914;2023-04-03T06:57:27;100732.09;;;21.90;nan
2401;BME280;1211;43.200;27.914;2023-04-03T06:59:56;100720.53;;;21.14;nan
2401;BME280;1211;43.200;27.914;2023-04-03T07:02:23;100729.34;;;21.62;nan
2401;BME280;1211;43.200;27.914;2023-04-03T07:04:49;100725.06;;;22.55;nan
2401;BME280;1211;43.200;27.914;2023-04-03T07:07:16;100721.41;;;22.58;nan
2401;BME280;1211;43.200;27.914;2023-04-03T07:09:44;100714.69;;;24.60;nan
2401;BME280;1211;43.200;27.914;2023-04-03T07:12:13;100714.00;;;24.23;nan
2401;BME280;1211;43.200;27.914;2023-04-03T07:14:41;100724.97;;;21.29;nan
2401;BME280;1211;43.200;27.914;2023-04-03T07:17:10;100720.97;;;21.44;nan
2401;BME280;1211;43.200;27.914;2023-04-03T07:19:37;100724.59;;;21.30;nan
2401;BME280;1211;43.200;27.914;2023-04-03T07:22:04;100726.56;;;21.12;nan
2401;BME280;1211;43.200;27.914;2023-04-03T07:24:30;100718.94;;;21.55;nan
2401;BME280;1211;43.200;27.914;2023-04-03T07:26:57;100727.84;;;22.58;nan
2401;BME280;1211;43.200;27.914;2023-04-03T07:29:24;100720.72;;;22.40;nan
2401;BME280;1211;43.200;27.914;2023-04-03T07:31:51;100719.50;;;23.10;nan
2401;BME280;1211;43.200;27.914;2023-04-03T07:34:19;100717.81;;;23.68;nan
2401;BME280;1211;43.200;27.914;2023-04-03T07:36:46;100728.91;;;21.81;nan
2401;BME280;1211;43.200;27.914;2023-04-03T07:39:13;100739.03;;;24.47;nan
2401;BME280;1211;43.200;27.914;2023-04-03T07:41:39;100743.31;;;24.86;nan
2401;BME280;1211;43.200;27.914;2023-04-03T07:44:06;100740.31;;;25.00;nan
2401;BME280;1211;43.200;27.914;2023-04-03T07:46:34;100749.47;;;23.75;nan
2401;BME280;1211;43.200;27.914;2023-04-03T07:49:01;100733.75;;;24.49;nan
2401;BME280;1211;43.200;27.914;2023-04-03T07:51:29;100739.63;;;24.62;nan
2401;BME280;1211;43.200;27.914;2023-04-03T07:53:56;100744.91;;;24.26;nan
2401;BME280;1211;43.200;27.914;2023-04-03T07:56:23;100746.50;;;22.06;nan
2401;BME280;1211;43.200;27.914;2023-04-03T07:58:50;100760.13;;;21.90;nan
2401;BME280;1211;43.200;27.914;2023-04-03T08:01:17;100758.19;;;21.55;nan
2401;BME280;1211;43.200;27.914;2023-04-03T08:03:44;100766.91;;;22.21;nan
2401;BME280;1211;43.200;27.914;2023-04-03T08:06:11;100775.09;;;23.85;nan
2401;BME280;1211;43.200;27.914;2023-04-03T08:08:41;100773.00;;;23.51;nan
2401;BME280;1211;43.200;27.914;2023-04-03T08:11:09;100779.41;;;21.99;nan
2401;BME280;1211;43.200;27.914;2023-04-03T08:13:36;100781.59;;;22.57;nan
2401;BME280;1211;43.200;27.914;2023-04-03T08:16:09;100778.19;;;21.82;nan
2401;BME280;1211;43.200;27.914;2023-04-03T08:18:36;100773.00;;;21.49;nan
2401;BME280;1211;43.200;27.914;2023-04-03T08:21:07;100774.63;;;21.28;nan
2401;BME280;1211;43.200;27.914;2023-04-03T08:23:34;100777.66;;;20.74;nan
2401;BME280;1211;43.200;27.914;2023-04-03T08:26:06;100775.31;;;22.17;nan
2401;BME280;1211;43.200;27.914;2023-04-03T08:28:33;100773.75;;;22.16;nan
2401;BME280;1211;43.200;27.914;2023-04-03T08:31:02;100773.41;;;21.61;nan
2401;BME280;1211;43.200;27.914;2023-04-03T08:33:29;100778.81;;;22.50;nan
2401;BME280;1211;43.200;27.914;2023-04-03T08:35:56;100768.16;;;22.02;nan
2401;BME280;1211;43.200;27.914;2023-04-03T08:38:23;100768.06;;;22.31;nan
2401;BME280;1211;43.200;27.914;2023-04-03T08:40:58;100777.56;;;22.62;nan
2401;BME280;1211;43.200;27.914;2023-04-03T08:43:30;100780.66;;;22.92;nan
2401;BME280;1211;43.200;27.914;2023-04-03T08:46:01;100774.59;;;21.78;nan
2401;BME280;1211;43.200;27.914;2023-04-03T08:48:31;100768.22;;;21.24;nan
2401;BME280;1211;43.200;27.914;2023-04-03T08:51:00;100775.81;;;21.31;nan
2401;BME280;1211;43.200;27.914;2023-04-03T08:53:30;100775.38;;;21.71;nan
2401;BME280;1211;43.200;27.914;2023-04-03T08:55:58;100768.22;;;21.70;nan
2401;BME280;1211;43.200;27.914;2023-04-03T08:58:31;100772.22;;;21.59;nan
2401;BME280;1211;43.200;27.914;2023-04-03T09:01:01;100775.41;;;21.18;nan
2401;BME280;1211;43.200;27.914;2023-04-03T09:03:30;100766.97;;;21.78;nan
2401;BME280;1211;43.200;27.914;2023-04-03T09:05:59;100761.00;;;21.59;nan
2401;BME280;1211;43.200;27.914;2023-04-03T09:08:28;100772.09;;;20.81;nan
2401;BME280;1211;43.200;27.914;2023-04-03T09:10:59;100768.91;;;20.86;nan
2401;BME280;1211;43.200;27.914;2023-04-03T09:13:27;100769.66;;;20.65;nan
2401;BME280;1211;43.200;27.914;2023-04-03T09:15:58;100759.03;;;20.16;nan
2401;BME280;1211;43.200;27.914;2023-04-03T09:18:28;100764.16;;;21.04;nan
2401;BME280;1211;43.200;27.914;2023-04-03T09:20:58;100752.81;;;20.51;nan
2401;BME280;1211;43.200;27.914;2023-04-03T09:23:29;100742.19;;;19.98;nan
2401;BME280;1211;43.200;27.914;2023-04-03T09:26:01;100755.63;;;19.82;nan
2401;BME280;1211;43.200;27.914;2023-04-03T09:28:31;100754.38;;;20.41;nan
2401;BME280;1211;43.200;27.914;2023-04-03T09:31:00;100763.63;;;20.49;nan
2401;BME280;1211;43.200;27.914;2023-04-03T09:33:28;100760.16;;;21.12;nan
2401;BME280;1211;43.200;27.914;2023-04-03T09:35:57;100753.78;;;21.68;nan
2401;BME280;1211;43.200;27.914;2023-04-03T09:38:23;100764.19;;;21.25;nan
2401;BME280;1211;43.200;27.914;2023-04-03T09:40:51;100770.53;;;21.08;nan
2401;BME280;1211;43.200;27.914;2023-04-03T09:43:29;100767.59;;;20.44;nan
2401;BME280;1211;43.200;27.914;2023-04-03T09:45:56;100777.41;;;19.11;nan
2401;BME280;1211;43.200;27.914;2023-04-03T09:48:48;100769.81;;;18.71;nan
2401;BME280;1211;43.200;27.914;2023-04-03T09:51:16;100774.00;;;18.91;nan
2401;BME280;1211;43.200;27.914;2023-04-03T09:53:43;100769.34;;;20.05;nan
2401;BME280;1211;43.200;27.914;2023-04-03T09:56:18;100783.38;;;19.54;nan
2401;BME280;1211;43.200;27.914;2023-04-03T09:58:47;100781.94;;;18.86;nan
2401;BME280;1211;43.200;27.914;2023-04-03T10:01:25;100777.31;;;18.34;nan
2401;BME280;1211;43.200;27.914;2023-04-03T10:04:05;100774.84;;;17.99;nan
2401;BME280;1211;43.200;27.914;2023-04-03T10:06:32;100780.22;;;18.15;nan
2401;BME280;1211;43.200;27.914;2023-04-03T10:09:01;100785.19;;;17.72;nan
2401;BME280;1211;43.200;27.914;2023-04-03T10:11:29;100776.13;;;18.05;nan
2401;BME280;1211;43.200;27.914;2023-04-03T10:13:56;100780.47;;;17.76;nan
2401;BME280;1211;43.200;27.914;2023-04-03T10:16:29;100774.91;;;17.53;nan
2401;BME280;1211;43.200;27.914;2023-04-03T10:19:24;100779.94;;;17.44;nan
2401;BME280;1211;43.200;27.914;2023-04-03T10:21:58;100778.16;;;17.33;nan
2401;BME280;1211;43.200;27.914;2023-04-03T10:24:28;100763.06;;;17.83;nan
2401;BME280;1211;43.200;27.914;2023-04-03T10:26:57;100766.09;;;18.00;nan
2401;BME280;1211;43.200;27.914;2023-04-03T10:29:31;100768.78;;;18.53;nan
2401;BME280;1211;43.200;27.914;2023-04-03T10:32:02;100767.66;;;18.28;nan
2401;BME280;1211;43.200;27.914;2023-04-03T10:34:37;100762.50;;;18.97;nan
2401;BME280;1211;43.200;27.914;2023-04-03T10:37:06;100755.72;;;18.94;nan
2401;BME280;1211;43.200;27.914;2023-04-03T10:39:42;100755.56;;;18.83;nan
2401;BME280;1211;43.200;27.914;2023-04-03T10:42:14;100759.31;;;18.61;nan
2401;BME280;1211;43.200;27.914;2023-04-03T10:44:53;100766.34;;;18.18;nan
2401;BME280;1211;43.200;27.914;2023-04-03T10:47:22;100749.84;;;18.66;nan
2401;BME280;1211;43.200;27.914;2023-04-03T10:49:54;100744.84;;;18.52;nan
2401;BME280;1211;43.200;27.914;2023-04-03T10:52:25;100750.28;;;18.71;nan
2401;BME280;1211;43.200;27.914;2023-04-03T10:54:56;100745.44;;;19.05;nan
2401;BME280;1211;43.200;27.914;2023-04-03T10:57:28;100753.28;;;18.92;nan
2401;BME280;1211;43.200;27.914;2023-04-03T10:59:56;100756.56;;;19.02;nan
2401;BME280;1211;43.200;27.914;2023-04-03T11:02:26;100758.56;;;18.64;nan
2401;BME280;1211;43.200;27.914;2023-04-03T11:04:58;100754.19;;;18.33;nan
2401;BME280;1211;43.200;27.914;2023-04-03T11:07:26;100761.00;;;18.06;nan
2401;BME280;1211;43.200;27.914;2023-04-03T11:09:57;100747.09;;;17.30;nan
2401;BME280;1211;43.200;27.914;2023-04-03T11:12:26;100750.56;;;17.01;nan
2401;BME280;1211;43.200;27.914;2023-04-03T11:14:55;100746.41;;;17.60;nan
2401;BME280;1211;43.200;27.914;2023-04-03T11:17:27;100755.28;;;17.20;nan
2401;BME280;1211;43.200;27.914;2023-04-03T11:19:59;100750.19;;;17.25;nan
2401;BME280;1211;43.200;27.914;2023-04-03T11:22:32;100765.63;;;17.46;nan
2401;BME280;1211;43.200;27.914;2023-04-03T11:25:03;100753.97;;;17.37;nan
2401;BME280;1211;43.200;27.914;2023-04-03T11:27:33;100755.72;;;17.71;nan
2401;BME280;1211;43.200;27.914;2023-04-03T11:30:05;100743.34;;;17.46;nan
2401;BME280;1211;43.200;27.914;2023-04-03T11:35:20;100744.25;;;18.02;nan
2401;BME280;1211;43.200;27.914;2023-04-03T11:37:48;100749.56;;;18.15;nan
2401;BME280;1211;43.200;27.914;2023-04-03T11:40:19;100752.50;;;17.69;nan
2401;BME280;1211;43.200;27.914;2023-04-03T11:42:48;100758.44;;;17.94;nan
2401;BME280;1211;43.200;27.914;2023-04-03T11:45:17;100750.94;;;18.28;nan
2401;BME280;1211;43.200;27.914;2023-04-03T11:47:50;100744.97;;;17.47;nan
2401;BME280;1211;43.200;27.914;2023-04-03T11:50:38;100751.97;;;16.69;nan
2401;BME280;1211;43.200;27.914;2023-04-03T11:55:59;100736.97;;;16.96;nan
2401;BME280;1211;43.200;27.914;2023-04-03T11:58:27;100739.75;;;17.19;nan
2401;BME280;1211;43.200;27.914;2023-04-03T12:00:58;100747.34;;;17.22;nan
2401;BME280;1211;43.200;27.914;2023-04-03T12:03:32;100749.88;;;16.85;nan
2401;BME280;1211;43.200;27.914;2023-04-03T12:08:45;100752.78;;;15.96;nan
2401;BME280;1211;43.200;27.914;2023-04-03T12:11:15;100748.66;;;15.71;nan
2401;BME280;1211;43.200;27.914;2023-04-03T12:14:01;100738.84;;;15.57;nan
2401;BME280;1211;43.200;27.914;2023-04-03T12:16:29;100740.91;;;15.60;nan
2401;BME280;1211;43.200;27.914;2023-04-03T12:18:58;100737.84;;;15.65;nan
2401;BME280;1211;43.200;27.914;2023-04-03T12:24:27;100736.66;;;15.51;nan
2401;BME280;1211;43.200;27.914;2023-04-03T12:27:02;100730.78;;;15.52;nan
2401;BME280;1211;43.200;27.914;2023-04-03T12:29:33;100726.81;;;15.38;nan
2401;BME280;1211;43.200;27.914;2023-04-03T12:32:05;100715.03;;;14.94;nan
2401;BME280;1211;43.200;27.914;2023-04-03T12:34:48;100719.84;;;15.59;nan
2401;BME280;1211;43.200;27.914;2023-04-03T12:37:21;100715.41;;;15.74;nan
2401;BME280;1211;43.200;27.914;2023-04-03T12:39:57;100715.00;;;15.56;nan
2401;BME280;1211;43.200;27.914;2023-04-03T12:42:55;100712.63;;;15.55;nan
2401;BME280;1211;43.200;27.914;2023-04-03T12:45:26;100698.56;;;16.02;nan
2401;BME280;1211;43.200;27.914;2023-04-03T12:47:53;100691.75;;;16.19;nan
2401;BME280;1211;43.200;27.914;2023-04-03T12:50:21;100695.34;;;16.38;nan
2401;BME280;1211;43.200;27.914;2023-04-03T12:52:55;100692.72;;;16.26;nan
2401;BME280;1211;43.200;27.914;2023-04-03T12:55:29;100706.91;;;16.40;nan
2401;BME280;1211;43.200;27.914;2023-04-03T12:57:56;100698.69;;;15.71;nan
2401;BME280;1211;43.200;27.914;2023-04-03T13:03:20;100696.53;;;15.13;nan
2401;BME280;1211;43.200;27.914;2023-04-03T13:05:48;100701.16;;;14.78;nan
2401;BME280;1211;43.200;27.914;2023-04-03T13:08:18;100700.56;;;14.84;nan
2401;BME280;1211;43.200;27.914;2023-04-03T13:10:50;100706.94;;;14.57;nan
2401;BME280;1211;43.200;27.914;2023-04-03T13:13:18;100708.94;;;14.72;nan
2401;BME280;1211;43.200;27.914;2023-04-03T13:15:46;100710.78;;;14.53;nan
2401;BME280;1211;43.200;27.914;2023-04-03T13:18:30;100712.13;;;14.43;nan
2401;BME280;1211;43.200;27.914;2023-04-03T13:20:59;100695.69;;;14.50;nan
2401;BME280;1211;43.200;27.914;2023-04-03T13:23:28;100705.72;;;14.70;nan
2401;BME280;1211;43.200;27.914;2023-04-03T13:25:56;100696.16;;;14.83;nan
2401;BME280;1211;43.200;27.914;2023-04-03T13:28:28;100693.84;;;14.86;nan
2401;BME280;1211;43.200;27.914;2023-04-03T13:31:00;100696.97;;;15.00;nan
2401;BME280;1211;43.200;27.914;2023-04-03T13:33:29;100693.59;;;14.91;nan
2401;BME280;1211;43.200;27.914;2023-04-03T13:35:57;100697.44;;;15.02;nan
2401;BME280;1211;43.200;27.914;2023-04-03T13:38:25;100695.00;;;15.16;nan
2401;BME280;1211;43.200;27.914;2023-04-03T13:40:53;100694.00;;;15.24;nan
2401;BME280;1211;43.200;27.914;2023-04-03T13:43:23;100701.28;;;15.13;nan
2401;BME280;1211;43.200;27.914;2023-04-03T13:45:58;100696.31;;;15.22;nan
2401;BME280;1211;43.200;27.914;2023-04-03T13:48:34;100704.91;;;15.33;nan